createdAt,value
2018-07-11T10:08:20.448Z,101505.80
2018-07-11T10:11:44.898Z,101504.45
2018-07-11T10:15:09.307Z,101509.31
2018-07-11T10:18:33.763Z,101499.86
2018-07-11T10:21:58.215Z,101496.38
2018-07-11T10:25:22.702Z,101493.86
2018-07-11T10:28:47.121Z,101495.16
2018-07-11T10:32:11.605Z,101495.04
2018-07-11T10:35:36.062Z,101492.66
2018-07-11T10:39:00.581Z,101490.48
2018-07-11T10:42:25.035Z,101483.52
2018-07-11T10:45:49.501Z,101479.23
2018-07-11T10:49:13.992Z,101477.08
2018-07-11T10:52:38.532Z,101478.11
2018-07-11T10:56:03.006Z,101482.25
2018-07-11T10:59:27.659Z,101472.62
2018-07-11T11:02:52.120Z,101469.02
2018-07-11T11:06:16.556Z,101468.83
2018-07-11T11:09:41.013Z,101465.36
2018-07-11T11:13:05.492Z,101478.02
2018-07-11T11:16:29.962Z,101476.73
2018-07-11T11:19:54.381Z,101484.39
2018-07-11T11:23:18.937Z,101475.66
2018-07-11T11:26:43.360Z,101477.77
2018-07-11T11:30:07.806Z,101468.62
2018-07-11T11:33:32.237Z,101469.83
2018-07-11T11:36:56.694Z,101453.31
2018-07-11T11:40:21.171Z,101458.94
2018-07-11T11:43:45.647Z,101450.17
2018-07-11T11:47:10.045Z,101452.20
2018-07-11T11:50:34.534Z,101444.28
2018-07-11T11:53:58.995Z,101445.48
2018-07-11T11:57:24.016Z,101440.36
2018-07-11T12:00:48.444Z,101441.89
2018-07-11T12:04:12.953Z,101441.39
2018-07-11T12:07:37.429Z,101428.80
2018-07-11T12:11:01.903Z,101429.53
2018-07-11T12:14:26.347Z,101427.11
2018-07-11T12:17:50.809Z,101418.34
2018-07-11T12:21:15.341Z,101417.45
2018-07-11T12:24:39.781Z,101417.02
2018-07-11T12:28:05.785Z,101415.21
2018-07-11T12:31:30.279Z,101405.48
2018-07-11T12:34:54.734Z,101404.30
2018-07-11T12:38:19.177Z,101401.75
2018-07-11T12:41:43.618Z,101399.04
2018-07-11T12:45:08.181Z,101394.95
2018-07-11T12:48:38.010Z,101395.05
2018-07-11T12:52:02.471Z,101396.65
2018-07-11T12:55:26.939Z,101395.39
2018-07-11T12:58:51.614Z,101382.34
2018-07-11T13:02:16.112Z,101382.00
2018-07-11T13:05:40.567Z,101383.66
2018-07-11T13:09:05.701Z,101378.33
2018-07-11T13:12:30.193Z,101376.63
2018-07-11T13:15:54.722Z,101373.02
2018-07-11T13:19:19.206Z,101375.59
2018-07-11T13:22:43.716Z,101369.22
2018-07-11T13:26:08.244Z,101368.93
2018-07-11T13:29:32.701Z,101376.20
2018-07-11T13:32:57.201Z,101374.95
2018-07-11T13:36:21.638Z,101366.63
2018-07-11T13:39:46.176Z,101378.76
2018-07-11T13:43:11.957Z,101372.59
2018-07-11T13:46:36.455Z,101379.45
2018-07-11T13:50:00.902Z,101385.52
2018-07-11T13:53:25.410Z,101385.63
2018-07-11T13:56:49.870Z,101386.37
2018-07-11T14:00:14.302Z,101389.50
2018-07-11T14:03:38.763Z,101395.15
2018-07-11T14:07:03.293Z,101427.36
2018-07-11T14:10:27.723Z,101426.31
2018-07-11T14:13:52.235Z,101430.36
2018-07-11T14:17:16.730Z,101428.92
2018-07-11T14:20:41.245Z,101419.65
2018-07-11T14:24:05.714Z,101414.98
2018-07-11T14:27:30.341Z,101405.24
2018-07-11T14:30:54.800Z,101407.05
2018-07-11T14:34:19.288Z,101409.43
2018-07-11T14:37:43.846Z,101411.98
2018-07-11T14:41:08.320Z,101402.89
2018-07-11T14:44:32.834Z,101399.54
2018-07-11T14:48:02.573Z,101393.80
2018-07-11T14:51:27.270Z,101395.80
2018-07-11T14:54:51.684Z,101394.25
2018-07-11T14:58:16.276Z,101386.13
2018-07-11T15:01:40.724Z,101374.61
2018-07-11T15:05:05.241Z,101387.74
2018-07-11T15:08:29.747Z,101385.79
2018-07-11T15:11:54.212Z,101397.15
2018-07-11T15:15:18.632Z,101397.06
2018-07-11T15:18:43.110Z,101396.02
2018-07-11T15:22:07.628Z,101399.95
2018-07-11T15:25:32.083Z,101406.95
2018-07-11T15:28:56.721Z,101409.53
2018-07-11T15:32:21.434Z,101414.72
2018-07-11T15:35:46.561Z,101421.31
2018-07-11T15:39:11.048Z,101422.50
2018-07-11T15:42:36.062Z,101416.64
2018-07-11T15:46:00.537Z,101413.98
2018-07-11T15:49:25.004Z,101408.60
2018-07-11T15:52:49.899Z,101402.06
2018-07-11T15:56:14.407Z,101388.75
2018-07-11T15:59:52.367Z,101391.06
2018-07-11T16:03:16.871Z,101379.04
2018-07-11T16:06:41.395Z,101371.98
2018-07-11T16:10:05.895Z,101375.98
2018-07-11T16:13:30.433Z,101368.77
2018-07-11T16:16:57.022Z,101366.48
2018-07-11T16:20:22.394Z,101370.38
2018-07-11T16:23:47.207Z,101375.03
2018-07-11T16:27:11.637Z,101372.19
2018-07-11T16:30:36.752Z,101373.20
2018-07-11T16:34:01.498Z,101369.63
2018-07-11T16:37:26.036Z,101368.34
2018-07-11T16:40:50.908Z,101382.92
2018-07-11T16:44:15.361Z,101391.88
2018-07-11T16:47:39.844Z,101390.80
2018-07-11T16:51:04.418Z,101388.80
2018-07-11T16:54:28.922Z,101401.62
2018-07-11T16:57:54.168Z,101401.44
2018-07-11T17:01:19.013Z,101397.20
2018-07-11T17:04:43.571Z,101395.68
2018-07-11T17:08:08.089Z,101401.81
2018-07-11T17:11:32.750Z,101398.05
2018-07-11T17:15:00.985Z,101399.42
2018-07-11T17:18:44.657Z,101404.59
2018-07-11T17:22:09.424Z,101405.06
2018-07-11T17:25:39.976Z,101397.66
2018-07-11T17:29:05.034Z,101391.00
2018-07-11T17:32:30.851Z,101402.48
2018-07-11T17:35:55.763Z,101401.66
2018-07-11T17:39:20.633Z,101410.95
2018-07-11T17:42:45.837Z,101401.01
2018-07-11T17:46:10.277Z,101403.05
2018-07-11T17:49:40.324Z,101406.03
2018-07-11T17:53:13.553Z,101401.36
2018-07-11T17:56:55.327Z,101397.95
2018-07-11T18:00:33.315Z,101405.70
2018-07-11T18:04:08.615Z,101414.94
2018-07-11T18:07:47.538Z,101415.42
2018-07-11T18:11:12.929Z,101419.38
2018-07-11T18:15:04.152Z,101421.59
2018-07-11T18:19:59.814Z,101423.74
2018-07-11T18:23:41.231Z,101424.27
2018-07-11T18:27:19.331Z,101427.03
2018-07-11T18:31:01.280Z,101424.85
2018-07-11T18:36:44.011Z,101420.94
2018-07-11T18:40:29.493Z,101430.66
2018-07-11T18:44:17.599Z,101427.78
2018-07-11T18:49:16.410Z,101420.67
2018-07-11T18:53:00.597Z,101422.56
2018-07-11T18:56:42.708Z,101420.77
2018-07-11T19:00:45.435Z,101420.10
2018-07-11T19:04:23.975Z,101414.30
2018-07-11T19:08:04.836Z,101414.39
2018-07-11T19:11:43.993Z,101417.80
2018-07-11T19:15:11.486Z,101418.78
2018-07-11T19:18:47.258Z,101429.93
2018-07-11T19:22:35.982Z,101427.34
2018-07-11T19:27:16.469Z,101433.72
2018-07-11T19:30:58.095Z,101441.98
2018-07-11T19:35:31.092Z,101437.17
2018-07-11T19:39:10.267Z,101450.45
2018-07-11T19:43:05.107Z,101450.41
2018-07-11T19:48:54.286Z,101454.41
2018-07-11T19:53:36.463Z,101466.17
2018-07-11T19:57:03.738Z,101479.64
2018-07-11T20:00:29.273Z,101483.67
2018-07-11T20:03:55.260Z,101484.41
2018-07-11T20:07:19.976Z,101483.39
2018-07-11T20:10:45.273Z,101478.50
2018-07-11T20:14:10.428Z,101483.34
2018-07-11T20:17:36.247Z,101486.92
2018-07-11T20:21:01.455Z,101491.53
2018-07-11T20:24:26.983Z,101499.75
2018-07-11T20:27:51.461Z,101504.43
2018-07-11T20:31:16.340Z,101501.52
2018-07-11T20:34:40.798Z,101497.23
2018-07-11T20:38:05.492Z,101498.14
2018-07-11T20:41:30.009Z,101502.40
2018-07-11T20:44:54.904Z,101507.67
2018-07-11T20:48:19.496Z,101503.01
2018-07-11T20:51:43.962Z,101496.69
2018-07-11T20:55:08.381Z,101500.41
2018-07-11T20:58:49.845Z,101504.25
2018-07-11T21:02:31.260Z,101502.59
2018-07-11T21:06:29.984Z,101500.83
2018-07-11T21:11:14.419Z,101502.40
2018-07-11T21:15:02.799Z,101502.40
2018-07-11T21:18:50.590Z,101515.41
2018-07-11T21:22:15.040Z,101510.30
2018-07-11T21:25:39.483Z,101515.78
2018-07-11T21:29:03.914Z,101509.69
2018-07-11T21:32:28.410Z,101503.92
2018-07-11T21:35:52.806Z,101509.48
2018-07-11T21:39:17.338Z,101511.36
2018-07-11T21:42:41.809Z,101505.02
2018-07-11T21:46:06.400Z,101505.38
2018-07-11T21:49:30.838Z,101506.34
2018-07-11T21:52:55.251Z,101506.39
2018-07-11T21:56:19.696Z,101515.61
2018-07-11T21:59:44.134Z,101512.31
2018-07-11T22:03:09.523Z,101510.94
2018-07-11T22:06:34.023Z,101507.55
2018-07-11T22:09:58.453Z,101506.90
2018-07-11T22:13:23.008Z,101509.59
2018-07-11T22:16:47.429Z,101508.83
2018-07-11T22:20:10.215Z,101508.73
2018-07-11T22:23:33.013Z,101499.86
2018-07-11T22:26:56.046Z,101510.09
2018-07-11T22:30:18.840Z,101505.68
2018-07-11T22:33:41.619Z,101514.91
2018-07-11T22:37:04.400Z,101508.73
2018-07-11T22:40:27.225Z,101511.11
2018-07-11T22:43:50.027Z,101503.36
2018-07-11T22:47:12.791Z,101502.34
2018-07-11T22:50:35.562Z,101501.43
2018-07-11T22:53:58.356Z,101504.76
2018-07-11T22:57:21.420Z,101503.45
2018-07-11T23:00:44.192Z,101503.30
2018-07-11T23:04:06.953Z,101511.27
2018-07-11T23:07:29.737Z,101504.98
2018-07-11T23:10:52.532Z,101502.55
2018-07-11T23:14:15.321Z,101506.59
2018-07-11T23:17:38.095Z,101504.07
2018-07-11T23:21:00.873Z,101501.54
2018-07-11T23:24:24.042Z,101503.56
2018-07-11T23:27:46.826Z,101496.88
2018-07-11T23:31:09.625Z,101502.44
2018-07-11T23:34:32.387Z,101501.02
2018-07-11T23:37:55.165Z,101501.94
2018-07-11T23:41:17.936Z,101499.31
2018-07-11T23:44:40.696Z,101498.74
2018-07-11T23:48:03.490Z,101501.98
2018-07-11T23:51:26.262Z,101494.25
2018-07-11T23:54:49.049Z,101504.20
2018-07-11T23:58:11.841Z,101500.67
